Glenwood City, WI

4:06 AM CDT on July 24, 2016 (GMT -0500)
Emerald, WI | | Change Station

Elev 1198 ft 45.10 °N, 92.26 °W | Updated 5 seconds ago

Overcast
Overcast
69.9 °F
Feels Like 69.9 °F
N
3.0
Wind Variable Wind from SE
Gusts 0.0 mph

Today
High -- | Low -- °F
--% Chance of Precip.
Yesterday
High -- | Low -- °F
Precip. -- in
Pressure 29.78 in
Visibility 5.0 miles
Clouds Overcast 500 ft
Dew Point 70 °F
Humidity 99%
Rainfall 0.00 in
Snow Depth Not available.
5:45 AM 8:44 PM
Waning Gibbous, 78% visible
METAR KRNH 240855Z AUTO 01003KT 5SM BR OVC005 22/22 A2978 RMK AO2 T02210218
Pressure 29.78 in
Visibility 5.0 miles
Clouds Overcast 500 ft
Dew Point 70 °F
Humidity 99%
Rainfall 0.00 in
Snow Depth Not available.
5:45 AM 8:44 PM
Waning Gibbous, 78% visible
METAR KRNH 240855Z AUTO 01003KT 5SM BR OVC005 22/22 A2978 RMK AO2 T02210218

10-Day Weather Forecast

Almanac

Astronomy

Jul. 24, 2016 Rise Set
Actual Time
Civil Twilight
Nautical Twilight
Astronomical Twilight
Moon
Length of Visible Light
Length of Day
Tomorrow will be .
, % of the Moon is Illuminated

Today's Extremes

State Highs State Lows

Community

WunderPhotos

Upload Photos

1,927,041 photos uploaded!

WunderBlog® & News

Nearby

Air Quality

  Air Quality AQ Index Pollutant
Not available.

Snow Depth

Station Depth Elevation

Earthquake Activity

City Distance Mag. Time & Date
Minimum magnitude displayed is 2.5.

Coastal Water Temperatures

Place Temperature

Stations

Nearby Weather Stations

Station Location Temp. Windchill Dew Point Humidity Wind Precip. Elev Updated Type
                   

Watches & Warnings

There are currently no watches in effect.